Time;durP1;ratioP1;P1;durP2;ratioP2;P2;SDS_P1;SDS_P2;PMS_P1;PMS_P2;Temp;Humidity;BMP_temperature;BMP_pressure;BME280_temperature;BME280_humidity;BME280_pressure;Samples;Min_cycle;Max_cycle;Signal;HPM_P1;HPM_P2
2023/03/12 00:00:16;;;;;;;8.63;6.53;;;0.90;1.00;;;;;;4947132;28;20192;-66
2023/03/12 00:02:43;;;;;;;9.67;6.13;;;0.90;1.00;;;;;;4950488;28;20210;-64
2023/03/12 00:05:11;;;;;;;11.07;6.77;;;0.90;1.00;;;;;;4948625;28;20234;-65
2023/03/12 00:07:38;;;;;;;14.43;7.50;;;0.90;1.00;;;;;;4949219;28;20626;-68
2023/03/12 00:10:06;;;;;;;14.13;7.60;;;0.90;1.00;;;;;;4943219;29;20209;-64
2023/03/12 00:12:33;;;;;;;13.50;7.07;;;0.90;1.00;;;;;;4965384;28;20199;-64
2023/03/12 00:15:00;;;;;;;24.43;9.33;;;0.90;1.00;;;;;;4950986;28;20543;-64
2023/03/12 00:17:29;;;;;;;32.60;11.63;;;0.80;1.00;;;;;;4953006;29;20273;-65
2023/03/12 00:19:57;;;;;;;46.07;16.67;;;0.90;1.00;;;;;;4967456;28;20210;-66
2023/03/12 00:22:27;;;;;;;49.40;15.70;;;0.90;1.00;;;;;;4966073;28;20697;-67
2023/03/12 00:24:55;;;;;;;55.23;17.87;;;0.90;1.00;;;;;;4967336;28;20211;-67
2023/03/12 00:27:24;;;;;;;68.37;22.40;;;0.90;1.00;;;;;;4951550;29;20237;-65
2023/03/12 00:29:51;;;;;;;21.17;10.30;;;0.90;1.00;;;;;;4952639;28;20195;-66
2023/03/12 00:32:18;;;;;;;27.20;11.00;;;0.90;1.00;;;;;;4950575;29;20199;-65
2023/03/12 00:34:54;;;;;;;26.27;10.70;;;0.90;1.00;;;;;;4951148;29;20258;-65
2023/03/12 00:37:21;;;;;;;17.13;9.03;;;0.90;1.00;;;;;;4941696;29;20209;-65
2023/03/12 00:39:48;;;;;;;28.10;13.40;;;0.90;1.00;;;;;;4951313;29;20310;-65
2023/03/12 00:42:16;;;;;;;16.00;9.17;;;0.90;1.00;;;;;;4965982;28;20598;-64
2023/03/12 00:44:43;;;;;;;17.03;8.53;;;0.80;1.00;;;;;;4966686;28;20226;-63
2023/03/12 00:47:11;;;;;;;14.73;8.20;;;0.70;1.00;;;;;;4950973;29;20834;-63
2023/03/12 00:49:39;;;;;;;13.23;7.63;;;0.70;1.00;;;;;;4951075;29;20624;-65
2023/03/12 00:52:06;;;;;;;13.60;7.83;;;0.50;1.00;;;;;;4950591;28;20195;-63
2023/03/12 00:54:33;;;;;;;11.07;7.37;;;0.40;1.00;;;;;;4950290;29;20274;-66
2023/03/12 00:57:00;;;;;;;12.63;7.27;;;0.30;1.00;;;;;;4934793;29;20261;-65
2023/03/12 00:59:27;;;;;;;19.17;8.80;;;0.20;1.00;;;;;;4950970;29;20222;-64
2023/03/12 01:01:54;;;;;;;22.00;12.30;;;0.10;1.00;;;;;;4934222;29;20210;-64
2023/03/12 01:04:21;;;;;;;18.83;10.13;;;0.10;1.00;;;;;;4952103;29;20235;-65
2023/03/12 01:06:48;;;;;;;14.33;9.70;;;0.00;1.00;;;;;;4949416;28;20215;-63
2023/03/12 01:09:15;;;;;;;15.73;8.67;;;0.00;1.00;;;;;;4966360;28;20199;-65
2023/03/12 01:11:43;;;;;;;14.97;7.70;;;0.00;1.00;;;;;;4948760;29;20215;-64
2023/03/12 01:14:10;;;;;;;15.30;7.50;;;-0.10;1.00;;;;;;4967103;28;20269;-64
2023/03/12 01:16:37;;;;;;;14.83;7.43;;;-0.10;1.00;;;;;;4951133;28;20202;-64
2023/03/12 01:19:04;;;;;;;12.30;7.20;;;-0.10;1.00;;;;;;4951233;29;20234;-63
2023/03/12 01:21:31;;;;;;;17.23;7.47;;;0.00;1.00;;;;;;4951597;29;20831;-64
2023/03/12 01:23:58;;;;;;;8.13;7.10;;;0.00;1.00;;;;;;4966904;28;20287;-65
2023/03/12 01:26:25;;;;;;;9.33;7.03;;;0.10;1.00;;;;;;4951865;28;20206;-67
2023/03/12 01:28:53;;;;;;;7.77;6.53;;;0.20;1.00;;;;;;4951051;29;20227;-64
2023/03/12 01:31:20;;;;;;;11.17;7.00;;;0.20;1.00;;;;;;4949869;29;20210;-66
2023/03/12 01:33:49;;;;;;;10.50;6.67;;;0.20;1.00;;;;;;4950614;28;20630;-64
2023/03/12 01:36:27;;;;;;;8.80;6.60;;;0.10;1.00;;;;;;4950045;28;20214;-62
2023/03/12 01:38:56;;;;;;;9.43;6.40;;;0.10;1.00;;;;;;4951948;29;20953;-64
2023/03/12 01:41:25;;;;;;;16.57;6.50;;;0.20;1.00;;;;;;4942255;29;20194;-63
2023/03/12 01:43:52;;;;;;;9.73;6.53;;;0.20;1.00;;;;;;4966202;28;20214;-64
2023/03/12 01:46:33;;;;;;;11.33;6.40;;;0.30;1.00;;;;;;4950697;29;20215;-63
2023/03/12 01:49:26;;;;;;;8.27;6.20;;;0.30;1.00;;;;;;4965281;28;20238;-63
2023/03/12 01:51:59;;;;;;;9.23;6.33;;;0.40;1.00;;;;;;4950641;29;20310;-64
2023/03/12 01:54:49;;;;;;;8.60;5.93;;;0.40;1.00;;;;;;4942515;29;20193;-65
2023/03/12 01:57:30;;;;;;;10.13;5.83;;;0.40;1.00;;;;;;4951569;29;20527;-64
2023/03/12 02:00:07;;;;;;;8.90;6.40;;;0.50;1.00;;;;;;4949967;29;20215;-66
2023/03/12 02:02:43;;;;;;;8.77;5.97;;;0.50;1.00;;;;;;4965837;28;20214;-64
2023/03/12 02:05:16;;;;;;;10.63;5.90;;;0.40;1.00;;;;;;4950298;29;20633;-64
2023/03/12 02:07:43;;;;;;;11.30;6.10;;;0.40;1.00;;;;;;4950939;28;20667;-65
2023/03/12 02:10:11;;;;;;;6.33;4.73;;;0.50;1.00;;;;;;4948741;29;20234;-63
2023/03/12 02:12:38;;;;;;;9.80;5.20;;;0.50;1.00;;;;;;4951172;28;20198;-63
2023/03/12 02:15:06;;;;;;;6.30;5.17;;;0.50;1.00;;;;;;4949755;29;20585;-63
2023/03/12 02:17:35;;;;;;;7.73;4.87;;;0.50;1.00;;;;;;4943776;29;20245;-65
2023/03/12 02:20:24;;;;;;;6.77;5.00;;;0.50;1.00;;;;;;4963670;28;20206;-66
2023/03/12 02:23:03;;;;;;;8.60;4.97;;;0.50;1.00;;;;;;4950863;29;20274;-64
2023/03/12 02:25:45;;;;;;;11.63;5.00;;;0.50;1.00;;;;;;4950817;29;20245;-65
2023/03/12 02:28:15;;;;;;;7.57;5.13;;;0.50;1.00;;;;;;4949884;28;20889;-64
2023/03/12 02:30:46;;;;;;;9.17;5.10;;;0.50;1.00;;;;;;4952627;29;20569;-63
2023/03/12 02:33:14;;;;;;;8.27;4.50;;;0.50;1.00;;;;;;4967237;28;20207;-63
2023/03/12 02:35:44;;;;;;;6.33;5.30;;;0.50;1.00;;;;;;4951892;29;20690;-63
2023/03/12 02:38:32;;;;;;;6.03;4.50;;;0.50;1.00;;;;;;4952942;29;20287;-64
2023/03/12 02:41:31;;;;;;;9.30;6.60;;;0.50;1.00;;;;;;4944100;29;20772;-64
2023/03/12 02:44:07;;;;;;;8.07;5.40;;;0.60;1.00;;;;;;4944077;29;20218;-65
2023/03/12 02:46:57;;;;;;;6.73;4.93;;;0.60;1.00;;;;;;4951715;29;20298;-66
2023/03/12 02:49:28;;;;;;;9.23;5.57;;;0.60;1.00;;;;;;4951160;28;20198;-67
2023/03/12 02:51:56;;;;;;;8.20;5.53;;;0.60;1.00;;;;;;4950767;28;20205;-65
2023/03/12 02:54:24;;;;;;;10.50;5.60;;;0.60;1.00;;;;;;4951251;28;20286;-66
2023/03/12 02:56:52;;;;;;;8.23;5.47;;;0.70;1.00;;;;;;4966148;28;20792;-65
2023/03/12 02:59:21;;;;;;;8.73;5.70;;;0.70;1.00;;;;;;4967527;28;20202;-64
2023/03/12 03:01:56;;;;;;;10.33;5.87;;;0.70;1.00;;;;;;4953277;29;20522;-64
2023/03/12 03:04:25;;;;;;;13.10;5.67;;;0.70;1.00;;;;;;4951921;28;20238;-64
2023/03/12 03:06:52;;;;;;;54.10;34.20;;;0.70;1.00;;;;;;4952749;28;20211;-67
2023/03/12 03:09:21;;;;;;;9.10;5.63;;;0.70;1.00;;;;;;4968734;28;20624;-64
2023/03/12 03:11:49;;;;;;;10.83;6.23;;;0.70;1.00;;;;;;4944598;28;20670;-65
2023/03/12 03:14:17;;;;;;;8.30;5.30;;;0.70;1.00;;;;;;4950852;28;20207;-64
2023/03/12 03:16:45;;;;;;;7.40;4.50;;;0.70;1.00;;;;;;4951034;28;21215;-65
2023/03/12 03:19:12;;;;;;;13.23;4.83;;;0.70;1.00;;;;;;4952759;29;20214;-64
2023/03/12 03:21:39;;;;;;;6.13;4.47;;;0.70;1.00;;;;;;4950603;29;20655;-65
2023/03/12 03:24:06;;;;;;;9.70;4.97;;;0.70;1.00;;;;;;4951565;28;20667;-65
2023/03/12 03:26:34;;;;;;;9.33;4.93;;;0.70;1.00;;;;;;4948849;29;20250;-65
2023/03/12 03:29:01;;;;;;;8.07;5.13;;;0.70;1.00;;;;;;4951666;29;20626;-64
2023/03/12 03:31:28;;;;;;;6.47;4.33;;;0.70;1.00;;;;;;4951251;28;20211;-64
2023/03/12 03:33:55;;;;;;;8.30;4.10;;;0.60;1.00;;;;;;4949691;29;20667;-66
2023/03/12 03:36:22;;;;;;;10.10;4.97;;;0.60;1.00;;;;;;4949039;29;20198;-65
2023/03/12 03:38:57;;;;;;;8.17;4.17;;;0.50;1.00;;;;;;4952022;28;20566;-64
2023/03/12 03:41:25;;;;;;;7.23;4.00;;;0.40;1.00;;;;;;4934998;29;20211;-66
2023/03/12 03:43:57;;;;;;;5.53;3.93;;;0.30;1.00;;;;;;4942941;28;20556;-65
2023/03/12 03:46:25;;;;;;;6.77;4.40;;;0.30;1.00;;;;;;4950325;28;20285;-66
2023/03/12 03:48:58;;;;;;;7.17;3.83;;;0.20;1.00;;;;;;4943342;28;20270;-63
2023/03/12 03:51:26;;;;;;;5.77;3.80;;;0.20;1.00;;;;;;4949682;28;20307;-64
2023/03/12 03:53:59;;;;;;;7.07;3.40;;;0.20;1.00;;;;;;4949729;29;20192;-64
2023/03/12 03:56:27;;;;;;;4.40;3.27;;;0.20;1.00;;;;;;4951232;29;20203;-65
2023/03/12 03:58:57;;;;;;;7.33;3.53;;;0.20;1.00;;;;;;4950019;28;20291;-63
2023/03/12 04:01:25;;;;;;;7.50;3.47;;;0.30;1.00;;;;;;4945468;29;20232;-65
2023/03/12 04:03:53;;;;;;;6.17;3.30;;;0.40;1.00;;;;;;4952006;28;20246;-63
2023/03/12 04:06:20;;;;;;;4.83;3.20;;;0.40;1.00;;;;;;4951975;29;20262;-63
2023/03/12 04:08:47;;;;;;;4.47;3.00;;;0.50;1.00;;;;;;4950658;29;20273;-63
2023/03/12 04:11:18;;;;;;;7.17;3.07;;;0.60;1.00;;;;;;4950257;29;20191;-64
2023/03/12 04:13:46;;;;;;;6.67;3.10;;;0.60;1.00;;;;;;4941727;28;20202;-66
2023/03/12 04:16:17;;;;;;;5.77;3.17;;;0.70;1.00;;;;;;4950996;28;20199;-64
2023/03/12 04:18:44;;;;;;;5.63;3.00;;;0.70;1.00;;;;;;4949460;29;20308;-64
2023/03/12 04:21:13;;;;;;;5.80;3.13;;;0.70;1.00;;;;;;4952041;29;20261;-64
2023/03/12 04:23:41;;;;;;;7.57;3.70;;;0.80;1.00;;;;;;4950084;29;20203;-64
2023/03/12 04:26:11;;;;;;;6.13;3.03;;;0.80;1.00;;;;;;4950306;29;20640;-64
2023/03/12 04:28:38;;;;;;;9.47;3.77;;;0.80;1.00;;;;;;4966492;28;20220;-64
2023/03/12 04:31:07;;;;;;;6.20;3.20;;;0.90;1.00;;;;;;4950959;29;20259;-65
2023/03/12 04:33:39;;;;;;;5.53;2.83;;;0.90;1.00;;;;;;4943513;29;20207;-65
2023/03/12 04:36:08;;;;;;;5.47;3.00;;;1.00;1.00;;;;;;4966406;28;20258;-66
2023/03/12 04:38:38;;;;;;;8.43;3.13;;;1.00;1.00;;;;;;4949964;29;20191;-65
2023/03/12 04:41:10;;;;;;;5.20;2.70;;;1.10;1.00;;;;;;4949309;29;20229;-65
2023/03/12 04:43:42;;;;;;;6.57;2.80;;;1.20;1.00;;;;;;4950794;29;20709;-65
2023/03/12 04:46:10;;;;;;;7.40;2.63;;;1.20;1.00;;;;;;4966187;28;20215;-65
2023/03/12 04:48:37;;;;;;;4.13;2.47;;;1.20;1.00;;;;;;4950684;29;20227;-66
2023/03/12 04:51:05;;;;;;;4.70;2.60;;;1.20;1.00;;;;;;4950057;28;20210;-65
2023/03/12 04:53:32;;;;;;;4.47;2.60;;;1.20;1.00;;;;;;4950006;28;20576;-66
2023/03/12 04:56:00;;;;;;;5.53;2.80;;;1.20;1.00;;;;;;4950358;29;20203;-62
2023/03/12 04:58:28;;;;;;;5.13;2.50;;;1.20;1.00;;;;;;4949075;29;20226;-66
2023/03/12 05:00:55;;;;;;;5.73;2.53;;;1.20;1.00;;;;;;4950495;28;20691;-65
2023/03/12 05:03:22;;;;;;;6.17;2.70;;;1.20;1.00;;;;;;4951156;28;20250;-66
2023/03/12 05:05:49;;;;;;;6.03;2.50;;;1.30;1.00;;;;;;4950825;29;20209;-65
2023/03/12 05:08:18;;;;;;;6.13;2.40;;;1.40;1.00;;;;;;4951042;29;20687;-64
2023/03/12 05:10:45;;;;;;;5.30;2.63;;;1.30;1.00;;;;;;4949753;29;20709;-65
2023/03/12 05:13:18;;;;;;;6.63;2.80;;;1.30;1.00;;;;;;4966922;28;20209;-65
2023/03/12 05:15:49;;;;;;;6.47;2.20;;;1.30;1.00;;;;;;4949153;28;20554;-64
2023/03/12 05:18:19;;;;;;;5.10;2.60;;;1.40;1.00;;;;;;4965085;28;20701;-65
2023/03/12 05:20:46;;;;;;;7.10;2.57;;;1.40;1.00;;;;;;4965059;28;20210;-65
2023/03/12 05:23:14;;;;;;;4.87;2.77;;;1.40;1.00;;;;;;4949196;29;20230;-65
2023/03/12 05:25:41;;;;;;;3.13;2.10;;;1.50;1.00;;;;;;4950124;28;20266;-65
2023/03/12 05:28:08;;;;;;;4.50;2.77;;;1.40;1.00;;;;;;4949743;29;20591;-65
2023/03/12 05:30:38;;;;;;;7.77;2.60;;;1.50;1.00;;;;;;4949970;29;20238;-65
2023/03/12 05:33:05;;;;;;;9.03;2.87;;;1.50;1.00;;;;;;4964720;28;20849;-65
2023/03/12 05:35:32;;;;;;;5.57;2.90;;;1.50;1.00;;;;;;4966263;28;20705;-65
2023/03/12 05:37:59;;;;;;;4.83;2.50;;;1.60;1.00;;;;;;4949726;29;20210;-65
2023/03/12 05:40:27;;;;;;;6.10;2.63;;;1.70;1.00;;;;;;4949876;29;20314;-67
2023/03/12 05:42:54;;;;;;;5.40;2.80;;;1.70;1.00;;;;;;4947431;29;20261;-65
2023/03/12 05:45:24;;;;;;;9.70;3.03;;;1.70;1.00;;;;;;4950244;28;20199;-66
2023/03/12 05:47:53;;;;;;;7.53;2.97;;;1.70;1.00;;;;;;4966100;28;20226;-65
2023/03/12 05:50:20;;;;;;;6.20;2.63;;;1.80;1.00;;;;;;4949744;29;20206;-66
2023/03/12 05:52:47;;;;;;;9.43;2.80;;;1.70;1.00;;;;;;4948908;29;20604;-65
2023/03/12 05:55:15;;;;;;;5.97;2.50;;;1.70;1.00;;;;;;4950018;29;20210;-66
2023/03/12 05:57:42;;;;;;;6.43;3.00;;;1.80;1.00;;;;;;4948896;29;20663;-66
2023/03/12 06:00:12;;;;;;;8.63;2.70;;;1.80;1.00;;;;;;4949659;29;20214;-66
2023/03/12 06:02:43;;;;;;;5.33;3.00;;;1.90;1.00;;;;;;4947773;28;20222;-65
2023/03/12 06:05:11;;;;;;;4.40;2.50;;;2.00;1.00;;;;;;4948925;29;20281;-65
2023/03/12 06:07:39;;;;;;;5.47;2.93;;;1.90;1.00;;;;;;4965319;28;20207;-65
2023/03/12 06:10:07;;;;;;;5.37;2.23;;;2.00;1.00;;;;;;4948894;29;20698;-65
2023/03/12 06:12:34;;;;;;;3.30;2.20;;;2.00;1.00;;;;;;4948814;29;20210;-65
2023/03/12 06:15:02;;;;;;;7.00;2.33;;;2.10;1.00;;;;;;4965803;28;20187;-65
2023/03/12 06:17:30;;;;;;;9.67;2.20;;;2.20;1.00;;;;;;4949409;29;20217;-64
2023/03/12 06:19:58;;;;;;;6.70;2.67;;;2.30;1.00;;;;;;4940649;29;20208;-65
2023/03/12 06:22:28;;;;;;;6.03;2.27;;;2.30;1.00;;;;;;4947390;29;20710;-66
2023/03/12 06:24:55;;;;;;;7.10;2.07;;;2.40;1.00;;;;;;4963109;28;20532;-65
2023/03/12 06:27:22;;;;;;;6.50;2.40;;;2.50;1.00;;;;;;4948825;29;20226;-65
2023/03/12 06:29:50;;;;;;;5.80;2.13;;;2.50;1.00;;;;;;4964660;28;20265;-65
2023/03/12 06:32:17;;;;;;;6.23;2.20;;;2.50;1.00;;;;;;4949589;29;20245;-65
2023/03/12 06:34:44;;;;;;;6.23;2.40;;;2.60;1.00;;;;;;4949231;29;20457;-66
2023/03/12 06:37:11;;;;;;;4.63;2.13;;;2.60;1.00;;;;;;4949372;28;20207;-65
2023/03/12 06:39:39;;;;;;;4.10;2.30;;;2.70;1.00;;;;;;4949939;29;20610;-65
2023/03/12 06:42:06;;;;;;;4.67;2.13;;;2.70;1.00;;;;;;4948526;29;20530;-65
2023/03/12 06:44:33;;;;;;;8.30;2.00;;;2.70;1.00;;;;;;4950246;29;20206;-65
2023/03/12 06:47:00;;;;;;;3.70;1.70;;;2.80;1.00;;;;;;4965216;28;20211;-65
2023/03/12 06:49:31;;;;;;;3.43;2.33;;;2.80;1.00;;;;;;4950347;28;20223;-65
2023/03/12 06:51:58;;;;;;;4.37;2.30;;;2.80;1.00;;;;;;4950494;29;20277;-66
2023/03/12 06:54:25;;;;;;;4.03;2.17;;;2.80;1.00;;;;;;4949942;28;20277;-65
2023/03/12 06:56:52;;;;;;;4.30;2.20;;;2.80;1.00;;;;;;4949811;28;20721;-64
2023/03/12 06:59:20;;;;;;;6.63;2.63;;;2.80;1.00;;;;;;4951148;28;20237;-62
2023/03/12 07:01:48;;;;;;;4.57;2.93;;;2.80;1.00;;;;;;4949176;29;20219;-64
2023/03/12 07:04:15;;;;;;;6.63;2.70;;;2.70;1.00;;;;;;4949781;29;20238;-65
2023/03/12 07:06:42;;;;;;;6.67;2.87;;;2.80;1.00;;;;;;4945946;29;20209;-65
2023/03/12 07:09:09;;;;;;;5.43;2.50;;;2.90;1.00;;;;;;4948283;29;20310;-64
2023/03/12 07:11:36;;;;;;;5.80;2.53;;;3.00;1.00;;;;;;4949186;28;20195;-65
2023/03/12 07:14:03;;;;;;;5.03;2.30;;;3.10;1.00;;;;;;4948326;28;20392;-65
2023/03/12 07:16:30;;;;;;;8.10;2.67;;;3.20;1.00;;;;;;4953990;29;20930;-65
2023/03/12 07:18:57;;;;;;;3.80;2.00;;;3.30;1.00;;;;;;4951940;29;20284;-65
2023/03/12 07:21:25;;;;;;;4.67;2.20;;;3.30;1.00;;;;;;4968901;28;20210;-68
2023/03/12 07:23:52;;;;;;;10.90;2.40;;;3.40;1.00;;;;;;4953570;29;20194;-65
2023/03/12 07:26:19;;;;;;;6.23;2.03;;;3.30;1.00;;;;;;4944235;29;20198;-65
2023/03/12 07:28:46;;;;;;;5.00;2.20;;;3.40;1.00;;;;;;4953667;29;20230;-66
2023/03/12 07:31:13;;;;;;;5.60;2.30;;;3.40;1.00;;;;;;4952926;29;20211;-66
2023/03/12 07:33:40;;;;;;;4.30;2.10;;;3.40;1.00;;;;;;4952065;28;20206;-65
2023/03/12 07:36:07;;;;;;;5.93;2.70;;;3.50;1.00;;;;;;4950236;29;20686;-65
2023/03/12 07:38:35;;;;;;;5.87;2.50;;;3.50;1.00;;;;;;4952664;28;20286;-66
2023/03/12 07:41:02;;;;;;;4.83;2.10;;;3.50;1.00;;;;;;4966743;28;20203;-66
2023/03/12 07:43:29;;;;;;;5.27;2.07;;;3.50;1.00;;;;;;4951690;29;20222;-64
2023/03/12 07:45:56;;;;;;;2.77;2.23;;;3.50;1.00;;;;;;4953593;28;20205;-65
2023/03/12 07:48:23;;;;;;;4.97;2.43;;;3.60;1.00;;;;;;4968335;28;20282;-61
2023/03/12 07:50:50;;;;;;;6.53;2.60;;;3.60;1.00;;;;;;4954260;28;20190;-64
2023/03/12 07:53:18;;;;;;;4.67;2.23;;;3.60;1.00;;;;;;4967824;28;20575;-62
2023/03/12 07:55:46;;;;;;;11.23;2.30;;;3.60;1.00;;;;;;4953070;28;20210;-65
2023/03/12 07:58:15;;;;;;;4.30;2.63;;;3.60;1.00;;;;;;4952197;29;20629;-64
2023/03/12 08:00:43;;;;;;;6.07;2.83;;;3.70;1.00;;;;;;4953595;29;20206;-64
2023/03/12 08:03:10;;;;;;;6.43;2.60;;;3.70;1.00;;;;;;4952121;29;20246;-64
2023/03/12 08:05:38;;;;;;;6.40;2.43;;;3.70;1.00;;;;;;4950718;29;20726;-63
2023/03/12 08:08:05;;;;;;;5.90;2.70;;;3.40;1.00;;;;;;4953064;28;20599;-63
2023/03/12 08:10:32;;;;;;;6.03;2.90;;;3.30;1.00;;;;;;4967137;28;20215;-64
2023/03/12 08:12:59;;;;;;;5.80;2.90;;;3.20;1.00;;;;;;4952596;28;20203;-64
2023/03/12 08:15:26;;;;;;;5.17;3.43;;;3.10;1.00;;;;;;4947562;28;20305;-64
2023/03/12 08:17:53;;;;;;;7.63;3.30;;;3.20;1.00;;;;;;4947358;29;20596;-63
2023/03/12 08:20:20;;;;;;;5.77;3.37;;;3.20;1.00;;;;;;4945992;29;20269;-63
2023/03/12 08:22:47;;;;;;;9.40;3.83;;;3.30;1.00;;;;;;4952042;29;20314;-64
2023/03/12 08:25:14;;;;;;;5.17;2.97;;;3.30;1.00;;;;;;4951417;28;20274;-63
2023/03/12 08:27:41;;;;;;;6.03;3.10;;;3.40;1.00;;;;;;4948379;29;20287;-64
2023/03/12 08:30:09;;;;;;;4.73;3.00;;;3.40;1.00;;;;;;4951211;28;20305;-65
2023/03/12 08:32:36;;;;;;;5.53;3.60;;;3.30;1.00;;;;;;4950120;29;20225;-63
2023/03/12 08:35:04;;;;;;;6.83;3.40;;;3.20;1.00;;;;;;4950901;28;20682;-63
2023/03/12 08:37:31;;;;;;;7.33;3.80;;;3.10;1.00;;;;;;4947096;28;20199;-64
2023/03/12 08:39:59;;;;;;;6.73;3.37;;;3.10;1.00;;;;;;4949547;29;20215;-64
2023/03/12 08:42:26;;;;;;;8.60;3.90;;;3.10;1.00;;;;;;4948896;29;20234;-65
2023/03/12 08:44:53;;;;;;;4.73;3.60;;;3.10;1.00;;;;;;4951571;29;20202;-64
2023/03/12 08:47:20;;;;;;;6.67;3.93;;;3.00;1.00;;;;;;4951584;29;20203;-64
2023/03/12 08:49:47;;;;;;;5.10;3.57;;;2.90;1.00;;;;;;4950525;28;20210;-65
2023/03/12 08:52:14;;;;;;;6.43;3.60;;;3.10;1.00;;;;;;4948397;29;20191;-65
2023/03/12 08:54:41;;;;;;;7.17;4.47;;;3.00;3.50;;;;;;4949390;28;20199;-64
2023/03/12 08:57:08;;;;;;;5.90;3.53;;;3.10;31.30;;;;;;4948201;28;20638;-66
2023/03/12 08:59:35;;;;;;;8.07;3.97;;;3.20;21.10;;;;;;4946587;29;20293;-65
2023/03/12 09:02:02;;;;;;;10.17;4.30;;;3.20;22.40;;;;;;4949833;29;20603;-65
2023/03/12 09:04:29;;;;;;;7.73;4.00;;;3.30;23.40;;;;;;4965009;28;20258;-65
2023/03/12 09:06:56;;;;;;;7.50;3.37;;;3.30;9.90;;;;;;4951240;29;20230;-67
2023/03/12 09:09:23;;;;;;;8.23;3.83;;;3.30;67.70;;;;;;4949941;29;20215;-64
2023/03/12 09:11:50;;;;;;;7.67;4.20;;;3.30;78.40;;;;;;4945362;28;20292;-64
2023/03/12 09:14:17;;;;;;;9.43;4.23;;;3.40;67.00;;;;;;4950233;28;20683;-65
2023/03/12 09:17:04;;;;;;;11.83;4.33;;;3.40;81.00;;;;;;4946023;28;20927;-65
2023/03/12 09:19:31;;;;;;;9.50;4.23;;;3.60;91.80;;;;;;4949790;28;20219;-65
2023/03/12 09:21:58;;;;;;;7.40;4.30;;;3.60;30.60;;;;;;4950051;29;20214;-66
2023/03/12 09:24:25;;;;;;;8.97;4.30;;;3.80;47.10;;;;;;4948170;28;20242;-65
2023/03/12 09:26:52;;;;;;;6.30;4.13;;;3.80;44.10;;;;;;4950575;28;20214;-64
2023/03/12 09:29:20;;;;;;;6.83;4.20;;;3.90;35.20;;;;;;4965822;28;20214;-65
2023/03/12 09:31:47;;;;;;;7.77;4.17;;;4.10;32.50;;;;;;4964265;28;20195;-65
2023/03/12 09:34:14;;;;;;;11.10;4.40;;;4.10;1.00;;;;;;4948373;29;20231;-64
2023/03/12 09:36:41;;;;;;;7.23;3.73;;;4.30;6.10;;;;;;4950956;28;20195;-65
2023/03/12 09:39:08;;;;;;;7.70;4.30;;;4.30;1.00;;;;;;4964282;28;20625;-65
2023/03/12 09:41:38;;;;;;;7.57;3.90;;;4.40;1.00;;;;;;4950280;28;20199;-67
2023/03/12 09:44:19;;;;;;;6.70;4.10;;;4.60;1.00;;;;;;4948858;29;20210;-64
2023/03/12 09:46:59;;;;;;;6.73;3.90;;;4.60;1.00;;;;;;4966026;28;20282;-64
2023/03/12 09:49:50;;;;;;;5.37;3.97;;;4.60;41.10;;;;;;4949079;29;20269;-65
2023/03/12 09:52:28;;;;;;;4.90;3.80;;;4.50;56.70;;;;;;4949492;29;20261;-64
2023/03/12 09:55:19;;;;;;;7.43;4.10;;;4.60;34.00;;;;;;4950314;29;20199;-66
2023/03/12 09:57:49;;;;;;;6.10;4.53;;;4.70;42.80;;;;;;4949616;29;20674;-64
2023/03/12 10:00:22;;;;;;;5.47;4.10;;;4.80;48.60;;;;;;4950280;28;20214;-64
2023/03/12 10:03:00;;;;;;;5.20;4.17;;;5.10;32.30;;;;;;4948405;28;20202;-64
2023/03/12 10:05:46;;;;;;;6.60;3.97;;;5.10;44.90;;;;;;4948684;28;20234;-64
2023/03/12 10:08:56;;;;;;;6.27;3.80;;;5.30;17.50;;;;;;4920359;29;20298;-66
2023/03/12 10:11:49;;;;;;;4.13;3.70;;;5.30;2.60;;;;;;4950268;28;20266;-64
2023/03/12 10:14:20;;;;;;;6.37;4.27;;;5.30;7.40;;;;;;4961886;28;20290;-64
2023/03/12 10:17:10;;;;;;;5.97;4.50;;;5.30;10.80;;;;;;4948504;29;20202;-64
2023/03/12 10:20:07;;;;;;;6.53;3.80;;;5.40;17.00;;;;;;4942904;29;20562;-64
2023/03/12 10:22:37;;;;;;;7.23;3.63;;;5.40;12.40;;;;;;4953354;28;20334;-66
2023/03/12 10:25:28;;;;;;;4.93;3.73;;;5.50;22.30;;;;;;4962143;28;20226;-64
2023/03/12 10:28:10;;;;;;;5.77;3.90;;;5.60;22.80;;;;;;4948656;28;20195;-65
2023/03/12 10:30:42;;;;;;;3.73;3.30;;;5.60;29.30;;;;;;4949093;29;20208;-64
2023/03/12 10:33:14;;;;;;;5.37;3.20;;;5.60;27.40;;;;;;4941750;29;20204;-65
2023/03/12 10:35:41;;;;;;;3.17;2.80;;;5.60;29.70;;;;;;4949877;29;20207;-65
2023/03/12 10:38:21;;;;;;;4.63;2.73;;;5.60;10.10;;;;;;4941084;29;20199;-65
2023/03/12 10:40:48;;;;;;;5.37;3.03;;;5.60;32.90;;;;;;4949282;29;20203;-65
2023/03/12 10:43:17;;;;;;;5.83;3.20;;;5.60;86.40;;;;;;4947014;29;20195;-65
2023/03/12 10:45:53;;;;;;;5.70;3.50;;;5.60;99.90;;;;;;4949306;28;20259;-64
2023/03/12 10:48:23;;;;;;;5.37;3.53;;;5.50;99.90;;;;;;4941924;28;20618;-66
2023/03/12 10:51:02;;;;;;;9.00;3.80;;;5.50;99.90;;;;;;4948323;28;20226;-65
2023/03/12 10:53:31;;;;;;;5.27;3.20;;;5.50;99.90;;;;;;4950854;29;20966;-65
2023/03/12 10:56:14;;;;;;;5.03;3.20;;;5.60;99.90;;;;;;4951922;29;20242;-65
2023/03/12 10:58:47;;;;;;;7.40;3.20;;;5.80;99.90;;;;;;4966695;28;20203;-65
2023/03/12 11:01:17;;;;;;;5.50;3.67;;;5.80;99.90;;;;;;4952371;29;20960;-65
2023/03/12 11:03:45;;;;;;;6.10;3.50;;;6.00;99.90;;;;;;4951797;29;20247;-65
2023/03/12 11:06:28;;;;;;;5.27;3.10;;;6.10;99.90;;;;;;4952160;29;20203;-65
2023/03/12 11:09:17;;;;;;;4.10;3.43;;;6.20;99.90;;;;;;4963653;28;20199;-66
2023/03/12 11:11:46;;;;;;;3.63;3.13;;;6.30;99.90;;;;;;4965366;28;20211;-65
2023/03/12 11:14:26;;;;;;;4.53;3.53;;;6.10;99.90;;;;;;4951109;28;20195;-63
2023/03/12 11:16:54;;;;;;;4.00;3.43;;;6.10;99.90;;;;;;4942250;28;20237;-65
2023/03/12 11:19:34;;;;;;;6.23;3.60;;;6.30;99.90;;;;;;4946634;29;20258;-66
2023/03/12 11:22:04;;;;;;;6.20;5.50;;;6.40;99.90;;;;;;4950232;29;20210;-65
2023/03/12 11:24:31;;;;;;;5.60;3.97;;;6.20;99.90;;;;;;4951197;29;20301;-66
2023/03/12 11:27:24;;;;;;;4.70;3.27;;;6.20;1.00;;;;;;4951007;28;20199;-66
2023/03/12 11:29:52;;;;;;;5.27;3.73;;;6.10;1.00;;;;;;4950529;28;20219;-65
2023/03/12 11:32:19;;;;;;;5.00;3.80;;;6.00;1.00;;;;;;4944524;28;20231;-66
2023/03/12 11:34:48;;;;;;;4.20;3.73;;;6.00;1.00;;;;;;4946967;28;20203;-65
2023/03/12 11:37:43;;;;;;;4.40;3.87;;;6.10;1.00;;;;;;4952233;28;20203;-65
2023/03/12 11:40:51;;;;;;;6.67;4.03;;;6.20;1.00;;;;;;4950445;29;20301;-65
2023/03/12 11:43:36;;;;;;;4.60;3.70;;;6.20;1.00;;;;;;4960028;28;20215;-64
2023/03/12 11:46:18;;;;;;;5.73;3.20;;;6.30;1.00;;;;;;4952669;28;20203;-68
2023/03/12 11:48:54;;;;;;;5.33;4.90;;;6.30;62.50;;;;;;4949965;28;20954;-67
2023/03/12 11:51:50;;;;;;;7.57;6.13;;;6.40;99.90;;;;;;4950939;28;20210;-66
2023/03/12 11:54:39;;;;;;;6.10;5.43;;;6.60;99.90;;;;;;4950961;28;20222;-65
2023/03/12 11:57:30;;;;;;;6.73;4.80;;;6.60;27.40;;;;;;4949336;28;20266;-66
2023/03/12 12:00:12;;;;;;;4.80;3.70;;;6.60;40.20;;;;;;4949722;28;20237;-66
2023/03/12 12:02:43;;;;;;;4.07;3.60;;;6.70;1.00;;;;;;4952627;29;20246;-64
2023/03/12 12:05:26;;;;;;;4.60;3.97;;;6.80;1.00;;;;;;4951537;28;20297;-65
2023/03/12 12:08:19;;;;;;;6.77;4.13;;;6.90;1.00;;;;;;4951989;28;20207;-65
2023/03/12 12:11:06;;;;;;;5.40;4.30;;;7.10;1.00;;;;;;4950208;28;20223;-70
2023/03/12 12:13:33;;;;;;;5.27;4.33;;;7.20;1.00;;;;;;4948689;28;20390;-65
2023/03/12 12:16:15;;;;;;;5.10;4.10;;;7.30;1.00;;;;;;4951247;29;20274;-66
2023/03/12 12:18:56;;;;;;;6.37;4.23;;;7.30;1.00;;;;;;4950591;28;20704;-65
2023/03/12 12:22:01;;;;;;;5.50;4.40;;;7.40;1.00;;;;;;4952607;28;20269;-65
2023/03/12 12:25:14;;;;;;;7.63;4.50;;;7.30;1.00;;;;;;4946394;29;20207;-64
2023/03/12 12:28:12;;;;;;;5.70;4.97;;;7.20;1.00;;;;;;4950371;28;20249;-66
2023/03/12 12:31:13;;;;;;;5.97;4.77;;;7.30;1.00;;;;;;4949904;28;20231;-65
2023/03/12 12:33:52;;;;;;;5.93;4.80;;;7.40;1.00;;;;;;4949117;28;20214;-65
2023/03/12 12:36:19;;;;;;;5.80;5.20;;;7.30;1.00;;;;;;4964523;28;20211;-66
2023/03/12 12:39:04;;;;;;;6.33;5.43;;;7.30;1.00;;;;;;4948439;28;20298;-65
2023/03/12 12:41:39;;;;;;;7.30;6.10;;;7.30;1.00;;;;;;4949613;28;20206;-66
2023/03/12 12:44:24;;;;;;;6.97;5.30;;;7.40;1.00;;;;;;4966020;28;20198;-66
2023/03/12 12:47:04;;;;;;;10.57;5.73;;;7.40;1.00;;;;;;4952669;28;20222;-65
2023/03/12 12:49:45;;;;;;;9.03;5.73;;;7.50;1.00;;;;;;4964241;28;20573;-65
2023/03/12 12:52:16;;;;;;;7.87;5.50;;;7.60;1.00;;;;;;4949177;28;20211;-65
2023/03/12 12:55:02;;;;;;;8.13;6.23;;;7.60;1.00;;;;;;4941576;29;20207;-65
2023/03/12 12:57:51;;;;;;;9.70;7.10;;;7.70;1.00;;;;;;4950758;28;20184;-64
2023/03/12 13:00:42;;;;;;;9.07;6.60;;;7.80;1.00;;;;;;4949931;28;20199;-65
2023/03/12 13:03:17;;;;;;;10.60;7.20;;;7.80;1.00;;;;;;4964387;28;20558;-66
2023/03/12 13:05:58;;;;;;;9.70;7.13;;;7.80;1.00;;;;;;4951637;29;20206;-66
2023/03/12 13:08:43;;;;;;;8.93;7.43;;;7.90;1.00;;;;;;4949198;28;20545;-66
2023/03/12 13:11:16;;;;;;;10.23;7.83;;;8.10;1.00;;;;;;4949491;28;20214;-66
2023/03/12 13:14:20;;;;;;;8.93;7.30;;;8.10;1.00;;;;;;4962625;28;20191;-65
2023/03/12 13:16:47;;;;;;;10.97;8.13;;;8.20;1.00;;;;;;4964635;28;20880;-64
2023/03/12 13:19:14;;;;;;;16.93;8.83;;;8.20;1.00;;;;;;4947927;28;20202;-66
2023/03/12 13:22:00;;;;;;;12.47;10.30;;;8.30;1.00;;;;;;4965913;28;20690;-66
2023/03/12 13:24:34;;;;;;;13.57;9.70;;;8.30;1.00;;;;;;4942721;28;20207;-65
2023/03/12 13:27:18;;;;;;;12.07;9.27;;;8.30;1.00;;;;;;4965553;28;20577;-65